Chennai International Airport
VOMM : now visible

Airfield :











YOU CAN JOIN US ON...

 
LOGIN :

Register | Disclaimer

   EN    FR    IT 

 









Legend :    VFR   Marginal VFR   IFR   Intensive IFR   Very Intensive IFR
Visi :
Ceiling :
>= 8 km
>= 3000ft
5 to 8 km
1000 to 3000 ft
1500m to 5 km
500 to 1000 ft
800 to 1500m
200 to 500 ft
< 800m
< 200 ft
Symbols :   Thunderstorms  Fog  Heavy snow  Heavy precipitations  Wind > 20 kt






- Airport Elevation : 52 ft
- IATA code : MAA


VOMM - Chennai International

CURRENT METAR :
  • 230830Z 10007KT 6000 SCT020 SCT100 35/28 Q1000 NOSIG

EXPIRED METARs :
  • 230800Z 13007KT 6000 SCT020 SCT100 35/28 Q1000 NOSIG
  • 230730Z 12005KT 6000 SCT020 SCT100 36/27 Q1000 NOSIG
  • 230700Z 10004KT 6000 SCT020 SCT100 36/26 Q1001 NOSIG
  • 230630Z VRB03KT 6000 SCT020 SCT100 36/26 Q1001 NOSIG
  • 230600Z VRB02KT 6000 SCT020 FEW025TCU SCT100 35/27 Q1002 NOSIG
  • 230530Z VRB02KT 6000 SCT020 SCT100 35/27 Q1002 NOSIG
  • 230500Z VRB03KT 6000 SCT020 SCT100 34/27 Q1002 NOSIG
  • 230430Z VRB02KT 6000 SCT020 SCT100 33/27 Q1003 NOSIG
  • 230400Z 35003KT 6000 SCT020 SCT100 33/27 Q1003 NOSIG

TAF TAF VOMM
Valid from the 23 at 00:00 until the 24 at 06:00 UTC


222300Z 2300/2406 VRB02KT 3000 DZ/BR SCT020 SCT100 ......
BECMG 2305/2306 07005KT 5000 BR . . ..
TEMPO 2306/2312 4000 -TSRA/RA SCT018 FEW025TCU/CB BKN100 ......
BECMG 2315/2316 25005KT 4000 BR
BECMG 2405/2406 07005KT 6000
VOMF FIR / Asia



MET'MAP, your aeronautical weather chart ! - Copyright ORBIFLY December 2007 - Disclaimer

ORBIFLY MET'MAP TEAM :

Programming & Development : Alexandra Zaïnal
Original concept : Baudouin d'Aumeries
Technical & hardware support : Manuel Goepfert
Assistance : Marc-Olivier Méhu




SOURCES & CREDITS :

   NOAA       Earth
Advisory